createdAt,value
2022-10-08T00:00:17.494Z,100.00
2022-10-08T00:02:48.139Z,100.00
2022-10-08T00:05:30.586Z,100.00
2022-10-08T00:08:04.391Z,100.00
2022-10-08T00:10:39.733Z,100.00
2022-10-08T00:13:12.167Z,100.00
2022-10-08T00:15:50.212Z,100.00
2022-10-08T00:18:19.743Z,100.00
2022-10-08T00:21:09.323Z,100.00
2022-10-08T00:23:48.154Z,100.00
2022-10-08T00:26:24.713Z,100.00
2022-10-08T00:28:56.197Z,98.35
2022-10-08T00:31:36.699Z,95.00
2022-10-08T00:34:06.991Z,93.65
2022-10-08T00:36:41.212Z,92.40
2022-10-08T00:39:17.771Z,91.40
2022-10-08T00:41:54.158Z,90.69
2022-10-08T00:44:58.732Z,91.88
2022-10-08T00:47:50.309Z,93.31
2022-10-08T00:50:25.177Z,92.04
2022-10-08T00:53:07.684Z,92.32
2022-10-08T00:55:44.106Z,93.14
2022-10-08T00:58:21.174Z,93.42
2022-10-08T01:00:55.461Z,94.61
2022-10-08T01:03:43.323Z,94.46
2022-10-08T01:06:32.972Z,94.77
2022-10-08T01:09:25.722Z,94.18
2022-10-08T01:12:12.694Z,93.89
2022-10-08T01:15:03.816Z,94.68
2022-10-08T01:17:57.934Z,97.34
2022-10-08T01:20:34.146Z,98.63
2022-10-08T01:23:38.724Z,99.75
2022-10-08T01:26:30.736Z,100.00
2022-10-08T01:29:32.042Z,97.39
2022-10-08T01:32:17.224Z,92.53
2022-10-08T01:34:49.716Z,91.36
2022-10-08T01:37:41.589Z,91.47
2022-10-08T01:40:23.001Z,91.84
2022-10-08T01:42:54.466Z,92.17
2022-10-08T01:45:34.664Z,93.25
2022-10-08T01:48:08.241Z,92.37
2022-10-08T01:50:45.189Z,92.70
2022-10-08T01:53:19.610Z,94.14
2022-10-08T01:55:54.869Z,95.14
2022-10-08T01:58:50.102Z,94.04
2022-10-08T02:01:44.286Z,93.78
2022-10-08T02:04:40.909Z,95.00
2022-10-08T02:07:14.973Z,97.43
2022-10-08T02:09:44.099Z,97.89
2022-10-08T02:12:11.945Z,98.78
2022-10-08T02:14:45.463Z,98.87
2022-10-08T02:17:39.893Z,98.14
2022-10-08T02:20:24.964Z,97.73
2022-10-08T02:23:17.877Z,100.00
2022-10-08T02:26:05.209Z,99.15
2022-10-08T02:28:52.087Z,99.67
2022-10-08T02:31:42.526Z,99.07
2022-10-08T02:34:25.466Z,95.65
2022-10-08T02:37:02.262Z,95.29
2022-10-08T02:39:34.459Z,96.04
2022-10-08T02:42:07.320Z,96.98
2022-10-08T02:44:55.175Z,94.61
2022-10-08T02:47:39.229Z,94.91
2022-10-08T02:50:17.067Z,94.50
2022-10-08T02:52:53.581Z,94.79
2022-10-08T02:56:00.848Z,94.54
2022-10-08T02:58:34.508Z,94.94
2022-10-08T03:01:14.638Z,93.78
2022-10-08T03:03:52.715Z,94.67
2022-10-08T03:06:21.140Z,96.72
2022-10-08T03:08:50.810Z,94.93
2022-10-08T03:11:25.022Z,94.79
2022-10-08T03:14:02.099Z,93.73
2022-10-08T03:16:38.764Z,94.99
2022-10-08T03:19:10.991Z,94.95
2022-10-08T03:21:48.422Z,94.04
2022-10-08T03:24:17.483Z,94.16
2022-10-08T03:26:48.751Z,93.93
2022-10-08T03:29:16.172Z,93.62
2022-10-08T03:31:42.781Z,92.71
2022-10-08T03:34:09.451Z,94.16
2022-10-08T03:36:36.163Z,94.10
2022-10-08T03:39:03.253Z,93.61
2022-10-08T03:41:31.476Z,93.80
2022-10-08T03:43:59.210Z,93.26
2022-10-08T03:46:25.893Z,93.21
2022-10-08T03:48:52.680Z,91.89
2022-10-08T03:51:20.917Z,92.98
2022-10-08T03:53:47.602Z,92.10
2022-10-08T03:56:17.020Z,92.59
2022-10-08T03:58:43.924Z,92.17
2022-10-08T04:01:16.686Z,95.34
2022-10-08T04:03:45.489Z,94.06
2022-10-08T04:06:12.683Z,92.93
2022-10-08T04:08:39.730Z,93.31
2022-10-08T04:11:14.902Z,96.21
2022-10-08T04:13:41.652Z,95.45
2022-10-08T04:16:12.342Z,93.19
2022-10-08T04:18:39.511Z,92.73
2022-10-08T04:21:09.325Z,93.50
2022-10-08T04:23:38.477Z,97.16
2022-10-08T04:26:06.592Z,100.00
2022-10-08T04:28:38.252Z,100.00
2022-10-08T04:31:08.490Z,100.00
2022-10-08T04:33:36.291Z,99.34
2022-10-08T04:36:11.358Z,97.92
2022-10-08T04:38:38.246Z,96.66
2022-10-08T04:41:24.604Z,94.57
2022-10-08T04:43:52.238Z,93.22
2022-10-08T04:46:21.047Z,91.85
2022-10-08T04:48:53.130Z,95.87
2022-10-08T04:51:21.011Z,97.09
2022-10-08T04:53:47.686Z,95.44
2022-10-08T04:56:16.976Z,94.58
2022-10-08T04:58:47.076Z,95.83
2022-10-08T05:01:18.192Z,95.72
2022-10-08T05:03:47.524Z,94.41
2022-10-08T05:06:15.697Z,97.05
2022-10-08T05:08:43.384Z,97.60
2022-10-08T05:11:10.450Z,99.52
2022-10-08T05:13:37.575Z,100.00
2022-10-08T05:16:12.874Z,100.00
2022-10-08T05:18:41.681Z,100.00
2022-10-08T05:21:14.172Z,100.00
2022-10-08T05:23:42.640Z,98.70
2022-10-08T05:26:17.606Z,99.04
2022-10-08T05:28:47.106Z,100.00
2022-10-08T05:31:15.020Z,100.00
2022-10-08T05:33:42.186Z,100.00
2022-10-08T05:36:15.354Z,100.00
2022-10-08T05:38:43.702Z,100.00
2022-10-08T05:41:14.343Z,100.00
2022-10-08T05:43:41.993Z,100.00
2022-10-08T05:46:09.107Z,100.00
2022-10-08T05:48:36.311Z,100.00
2022-10-08T05:51:07.850Z,100.00
2022-10-08T05:53:36.430Z,100.00
2022-10-08T05:56:05.032Z,100.00
2022-10-08T05:58:34.072Z,100.00
2022-10-08T06:01:02.634Z,100.00
2022-10-08T06:03:29.410Z,100.00
2022-10-08T06:06:03.120Z,100.00
2022-10-08T06:08:29.792Z,100.00
2022-10-08T06:10:56.733Z,100.00
2022-10-08T06:13:24.093Z,100.00
2022-10-08T06:16:03.419Z,100.00
2022-10-08T06:18:33.096Z,100.00
2022-10-08T06:21:04.473Z,100.00
2022-10-08T06:23:31.204Z,100.00
2022-10-08T06:26:01.975Z,100.00
2022-10-08T06:28:28.723Z,100.00
2022-10-08T06:31:00.676Z,100.00
2022-10-08T06:33:30.078Z,100.00
2022-10-08T06:36:15.781Z,100.00
2022-10-08T06:39:07.216Z,100.00
2022-10-08T06:41:37.722Z,100.00
2022-10-08T06:44:12.534Z,100.00
2022-10-08T06:46:45.512Z,100.00
2022-10-08T06:49:19.339Z,100.00
2022-10-08T06:51:52.116Z,100.00
2022-10-08T06:54:30.418Z,100.00
2022-10-08T06:57:06.509Z,100.00
2022-10-08T06:59:49.677Z,100.00
2022-10-08T07:02:17.555Z,100.00
2022-10-08T07:04:47.861Z,100.00
2022-10-08T07:07:20.499Z,100.00
2022-10-08T07:09:53.286Z,100.00
2022-10-08T07:12:23.826Z,100.00
2022-10-08T07:14:55.750Z,100.00
2022-10-08T07:17:29.579Z,100.00
2022-10-08T07:20:03.984Z,100.00
2022-10-08T07:22:34.529Z,100.00
2022-10-08T07:25:01.843Z,100.00
2022-10-08T07:27:47.645Z,100.00
2022-10-08T07:30:18.238Z,100.00
2022-10-08T07:32:55.380Z,100.00
2022-10-08T07:35:26.723Z,100.00
2022-10-08T07:37:55.356Z,100.00
2022-10-08T07:40:29.718Z,100.00
2022-10-08T07:43:06.180Z,100.00
2022-10-08T07:45:36.348Z,100.00
2022-10-08T07:48:07.048Z,100.00
2022-10-08T07:50:37.046Z,100.00
2022-10-08T07:53:07.848Z,100.00
2022-10-08T07:55:38.779Z,100.00
2022-10-08T07:58:14.472Z,100.00
2022-10-08T08:00:42.331Z,100.00
2022-10-08T08:03:20.870Z,100.00
2022-10-08T08:05:51.941Z,100.00
2022-10-08T08:08:29.349Z,100.00
2022-10-08T08:11:06.098Z,100.00
2022-10-08T08:13:37.458Z,100.00
2022-10-08T08:16:13.653Z,100.00
2022-10-08T08:18:52.910Z,100.00
2022-10-08T08:21:27.016Z,100.00
2022-10-08T08:24:21.657Z,100.00
2022-10-08T08:26:58.408Z,100.00
2022-10-08T08:29:25.119Z,100.00
2022-10-08T08:31:52.616Z,100.00
2022-10-08T08:34:27.364Z,100.00
2022-10-08T08:37:06.860Z,100.00
2022-10-08T08:39:39.670Z,100.00
2022-10-08T08:42:42.288Z,100.00
2022-10-08T08:45:46.247Z,100.00
2022-10-08T08:48:35.910Z,100.00
2022-10-08T08:51:12.776Z,100.00
2022-10-08T08:53:51.039Z,100.00
2022-10-08T08:56:25.207Z,99.55
2022-10-08T08:59:08.516Z,98.50
2022-10-08T09:01:45.986Z,96.69
2022-10-08T09:04:45.100Z,96.03
2022-10-08T09:07:25.481Z,95.41
2022-10-08T09:10:04.250Z,94.69
2022-10-08T09:12:43.147Z,95.67
2022-10-08T09:15:25.449Z,94.72
2022-10-08T09:17:55.875Z,94.98
2022-10-08T09:20:26.449Z,94.56
2022-10-08T09:23:00.195Z,92.87
2022-10-08T09:25:33.922Z,92.73
2022-10-08T09:28:05.822Z,91.92
2022-10-08T09:30:43.996Z,90.13
2022-10-08T09:33:32.139Z,90.90
2022-10-08T09:36:02.297Z,90.12
2022-10-08T09:38:39.279Z,89.28
2022-10-08T09:41:18.587Z,88.30
2022-10-08T09:44:05.944Z,86.42
2022-10-08T09:46:33.981Z,88.25
2022-10-08T09:49:29.934Z,88.23
2022-10-08T09:52:06.490Z,87.19
2022-10-08T09:54:43.309Z,86.28
2022-10-08T09:57:18.409Z,86.39
2022-10-08T09:59:54.429Z,87.17
2022-10-08T10:02:34.400Z,85.77
2022-10-08T10:05:02.947Z,85.85
2022-10-08T10:07:40.425Z,85.81
2022-10-08T10:10:34.275Z,85.28
2022-10-08T10:13:22.293Z,84.63
2022-10-08T10:16:13.501Z,84.19
2022-10-08T10:19:04.919Z,84.77
2022-10-08T10:21:40.238Z,84.13
2022-10-08T10:24:28.278Z,84.47
2022-10-08T10:27:00.953Z,82.40
2022-10-08T10:29:41.681Z,82.77
2022-10-08T10:32:23.868Z,83.42
2022-10-08T10:35:26.254Z,82.59
2022-10-08T10:38:28.937Z,82.46
2022-10-08T10:41:12.977Z,81.54
2022-10-08T10:43:57.536Z,81.73
2022-10-08T10:46:28.136Z,81.90
2022-10-08T10:48:57.235Z,81.10
2022-10-08T10:51:54.262Z,80.72
2022-10-08T10:54:56.901Z,79.83
2022-10-08T10:58:03.987Z,79.78
2022-10-08T11:00:50.624Z,78.65
2022-10-08T11:03:50.737Z,78.72
2022-10-08T11:06:56.168Z,78.77
2022-10-08T11:09:49.874Z,78.38
2022-10-08T11:13:09.674Z,78.90
2022-10-08T11:15:52.260Z,77.92
2022-10-08T11:18:42.444Z,77.94
2022-10-08T11:21:12.561Z,78.10
2022-10-08T11:23:58.538Z,77.46
2022-10-08T11:26:37.128Z,77.87
2022-10-08T11:29:36.942Z,78.70
2022-10-08T11:32:20.970Z,76.94
2022-10-08T11:35:01.655Z,77.13
2022-10-08T11:37:42.491Z,78.26
2022-10-08T11:40:57.351Z,78.36
2022-10-08T11:43:55.413Z,77.72
2022-10-08T11:46:39.213Z,78.74
2022-10-08T11:49:22.729Z,77.38
2022-10-08T11:51:55.959Z,77.92
2022-10-08T11:54:39.306Z,77.49
2022-10-08T12:00:20.898Z,77.83
2022-10-08T12:02:53.427Z,78.03
2022-10-08T12:05:25.175Z,78.38
2022-10-08T12:08:07.397Z,77.71
2022-10-08T12:10:40.841Z,77.75
2022-10-08T12:13:17.883Z,76.77
2022-10-08T12:15:45.565Z,77.89
2022-10-08T12:18:14.301Z,77.66
2022-10-08T12:20:44.722Z,78.14
2022-10-08T12:23:23.120Z,78.67
2022-10-08T12:26:00.815Z,78.10
2022-10-08T12:28:30.401Z,77.24
2022-10-08T12:30:59.417Z,77.86
2022-10-08T12:33:27.084Z,77.89
2022-10-08T12:36:07.003Z,77.42
2022-10-08T12:38:38.858Z,77.30
2022-10-08T12:41:26.118Z,77.03
2022-10-08T12:44:00.896Z,77.60
2022-10-08T12:46:41.050Z,79.77
2022-10-08T12:49:35.880Z,79.81
2022-10-08T12:52:18.777Z,80.09
2022-10-08T12:54:56.476Z,81.03
2022-10-08T12:57:37.760Z,81.42
2022-10-08T13:00:32.498Z,81.85
2022-10-08T13:03:16.763Z,81.63
2022-10-08T13:05:48.241Z,80.05
2022-10-08T13:08:38.960Z,80.53
2022-10-08T13:11:19.059Z,81.19
2022-10-08T13:13:51.300Z,79.96
2022-10-08T13:16:24.689Z,80.31
2022-10-08T13:18:58.968Z,80.30
2022-10-08T13:21:34.320Z,79.96
2022-10-08T13:24:22.801Z,77.56
2022-10-08T13:26:53.525Z,77.89
2022-10-08T13:29:26.469Z,78.54
2022-10-08T13:32:00.278Z,77.85
2022-10-08T13:34:42.753Z,76.68
2022-10-08T13:37:24.862Z,76.55
2022-10-08T13:39:57.574Z,76.32
2022-10-08T13:42:28.134Z,75.59
2022-10-08T13:44:56.800Z,76.46
2022-10-08T13:47:24.200Z,76.81
2022-10-08T13:50:00.739Z,76.43
2022-10-08T13:52:31.630Z,74.72
2022-10-08T13:55:30.638Z,74.04
2022-10-08T13:58:08.454Z,74.85
2022-10-08T14:00:37.594Z,76.28
2022-10-08T14:03:05.670Z,76.17
2022-10-08T14:05:41.571Z,76.60
2022-10-08T14:08:19.849Z,76.12
2022-10-08T14:10:53.528Z,76.61
2022-10-08T14:13:21.564Z,76.22
2022-10-08T14:15:48.318Z,75.58
2022-10-08T14:18:16.502Z,76.43
2022-10-08T14:20:45.984Z,76.38
2022-10-08T14:23:16.849Z,77.06
2022-10-08T14:25:47.666Z,77.83
2022-10-08T14:28:15.802Z,78.32
2022-10-08T14:30:46.827Z,77.54
2022-10-08T14:33:15.945Z,77.65
2022-10-08T14:35:46.323Z,78.13
2022-10-08T14:38:20.182Z,78.33
2022-10-08T14:40:48.379Z,78.97
2022-10-08T14:43:15.215Z,79.86
2022-10-08T14:45:41.940Z,80.60
2022-10-08T14:48:14.034Z,80.45
2022-10-08T14:50:45.244Z,81.76
2022-10-08T14:53:19.516Z,82.94
2022-10-08T14:56:11.072Z,84.28
2022-10-08T14:58:39.154Z,84.75
2022-10-08T15:01:09.961Z,85.24
2022-10-08T15:03:36.711Z,86.02
2022-10-08T15:06:03.487Z,86.71
2022-10-08T15:08:34.981Z,86.75
2022-10-08T15:11:04.092Z,87.78
2022-10-08T15:13:33.560Z,88.71
2022-10-08T15:16:00.341Z,89.98
2022-10-08T15:18:30.187Z,89.08
2022-10-08T15:20:59.787Z,89.26
2022-10-08T15:23:28.899Z,89.45
2022-10-08T15:25:58.016Z,89.24
2022-10-08T15:28:28.012Z,90.03
2022-10-08T15:31:15.441Z,90.66
2022-10-08T15:33:45.706Z,90.23
2022-10-08T15:36:21.038Z,89.86
2022-10-08T15:38:56.744Z,89.91
2022-10-08T15:41:23.806Z,89.85
2022-10-08T15:43:56.018Z,90.21
2022-10-08T15:46:29.811Z,91.20
2022-10-08T15:48:57.112Z,91.82
2022-10-08T15:51:27.304Z,92.55
2022-10-08T15:53:58.708Z,92.82
2022-10-08T15:56:27.227Z,93.35
2022-10-08T15:58:55.627Z,93.44
2022-10-08T16:01:24.229Z,93.48
2022-10-08T16:03:53.451Z,94.21
2022-10-08T16:06:27.442Z,94.92
2022-10-08T16:09:02.013Z,94.77
2022-10-08T16:11:34.994Z,96.49
2022-10-08T16:14:08.422Z,96.50
2022-10-08T16:16:37.783Z,96.93
2022-10-08T16:19:18.337Z,97.07
2022-10-08T16:21:50.717Z,96.96
2022-10-08T16:24:22.047Z,96.96
2022-10-08T16:26:51.867Z,97.23
2022-10-08T16:29:22.417Z,96.94
2022-10-08T16:31:50.788Z,96.31
2022-10-08T16:34:24.030Z,96.38
2022-10-08T16:36:55.312Z,96.14
2022-10-08T16:39:26.629Z,96.51
2022-10-08T16:41:54.374Z,96.96
2022-10-08T16:44:21.988Z,97.01
2022-10-08T16:46:51.401Z,97.01
2022-10-08T16:49:36.037Z,96.82
2022-10-08T16:52:05.914Z,96.85
2022-10-08T16:54:35.471Z,97.46
2022-10-08T16:57:05.568Z,97.67
2022-10-08T16:59:32.555Z,97.73
2022-10-08T17:01:59.686Z,97.94
2022-10-08T17:04:28.211Z,98.76
2022-10-08T17:07:01.194Z,98.55
2022-10-08T17:09:31.917Z,98.21
2022-10-08T17:12:02.680Z,97.73
2022-10-08T17:14:32.434Z,98.07
2022-10-08T17:16:59.942Z,97.85
2022-10-08T17:19:29.103Z,97.44
2022-10-08T17:21:56.883Z,98.12
2022-10-08T17:24:23.675Z,98.51
2022-10-08T17:26:52.209Z,98.91
2022-10-08T17:29:25.640Z,98.28
2022-10-08T17:31:53.391Z,98.19
2022-10-08T17:34:20.682Z,97.77
2022-10-08T17:36:50.885Z,98.87
2022-10-08T17:39:18.685Z,99.33
2022-10-08T17:41:45.458Z,99.10
2022-10-08T17:44:17.843Z,98.69
2022-10-08T17:46:49.529Z,98.68
2022-10-08T17:49:22.341Z,99.00
2022-10-08T17:51:53.973Z,98.14
2022-10-08T17:54:24.231Z,98.05
2022-10-08T17:56:53.694Z,98.29
2022-10-08T17:59:25.981Z,99.01
2022-10-08T18:01:53.962Z,98.80
2022-10-08T18:04:21.848Z,98.77
2022-10-08T18:06:51.997Z,98.96
2022-10-08T18:09:28.699Z,98.57
2022-10-08T18:12:00.613Z,98.92
2022-10-08T18:14:34.081Z,99.48
2022-10-08T18:17:10.116Z,99.79
2022-10-08T18:19:38.262Z,99.94
2022-10-08T18:22:07.417Z,100.00
2022-10-08T18:24:36.928Z,99.70
2022-10-08T18:27:06.814Z,99.87
2022-10-08T18:29:41.155Z,100.00
2022-10-08T18:32:11.778Z,100.00
2022-10-08T18:34:47.089Z,100.00
2022-10-08T18:37:22.973Z,100.00
2022-10-08T18:39:50.020Z,100.00
2022-10-08T18:42:22.471Z,100.00
2022-10-08T18:44:54.825Z,99.42
2022-10-08T18:47:28.501Z,99.33
2022-10-08T18:50:08.628Z,99.50
2022-10-08T18:52:46.340Z,100.00
2022-10-08T18:55:23.088Z,100.00
2022-10-08T18:57:56.126Z,100.00
2022-10-08T19:00:32.243Z,100.00
2022-10-08T19:03:02.094Z,100.00
2022-10-08T19:05:28.856Z,100.00
2022-10-08T19:07:56.541Z,100.00
2022-10-08T19:10:27.975Z,100.00
2022-10-08T19:12:55.955Z,100.00
2022-10-08T19:15:23.291Z,100.00
2022-10-08T19:17:50.071Z,100.00
2022-10-08T19:20:16.713Z,100.00
2022-10-08T19:22:43.596Z,99.75
2022-10-08T19:25:10.953Z,100.00
2022-10-08T19:27:49.173Z,100.00
2022-10-08T19:30:24.808Z,100.00
2022-10-08T19:32:56.695Z,100.00
2022-10-08T19:35:32.864Z,100.00
2022-10-08T19:38:04.239Z,100.00
2022-10-08T19:40:33.904Z,100.00
2022-10-08T19:43:06.430Z,100.00
2022-10-08T19:45:34.990Z,100.00
2022-10-08T19:48:02.408Z,100.00
2022-10-08T19:50:31.462Z,100.00
2022-10-08T19:52:59.364Z,100.00
2022-10-08T19:55:30.035Z,100.00
2022-10-08T19:58:03.684Z,100.00
2022-10-08T20:00:43.543Z,100.00
2022-10-08T20:03:16.079Z,100.00
2022-10-08T20:05:45.192Z,100.00
2022-10-08T20:08:17.275Z,100.00
2022-10-08T20:10:50.860Z,100.00
2022-10-08T20:13:24.654Z,100.00
2022-10-08T20:15:53.760Z,100.00
2022-10-08T20:18:26.184Z,100.00
2022-10-08T20:21:00.783Z,100.00
2022-10-08T20:23:27.894Z,100.00
2022-10-08T20:25:55.643Z,100.00
2022-10-08T20:28:26.968Z,100.00
2022-10-08T20:30:57.635Z,100.00
2022-10-08T20:33:31.317Z,100.00
2022-10-08T20:35:58.371Z,100.00
2022-10-08T20:38:33.314Z,100.00
2022-10-08T20:41:03.974Z,100.00
2022-10-08T20:43:38.552Z,100.00
2022-10-08T20:46:11.567Z,100.00
2022-10-08T20:48:40.676Z,100.00
2022-10-08T20:51:12.109Z,100.00
2022-10-08T20:53:39.087Z,100.00
2022-10-08T20:56:08.171Z,100.00
2022-10-08T20:58:36.102Z,100.00
2022-10-08T21:01:15.100Z,100.00
2022-10-08T21:03:43.961Z,100.00
2022-10-08T21:06:13.471Z,100.00
2022-10-08T21:08:42.141Z,100.00
2022-10-08T21:11:11.837Z,100.00
2022-10-08T21:13:38.768Z,100.00
2022-10-08T21:16:09.903Z,100.00
2022-10-08T21:18:37.470Z,100.00
2022-10-08T21:21:09.536Z,100.00
2022-10-08T21:23:36.753Z,100.00
2022-10-08T21:26:08.946Z,100.00
2022-10-08T21:28:36.398Z,100.00
2022-10-08T21:31:04.481Z,100.00
2022-10-08T21:33:35.213Z,100.00
2022-10-08T21:36:02.152Z,100.00
2022-10-08T21:38:28.922Z,100.00
2022-10-08T21:41:11.366Z,100.00
2022-10-08T21:43:47.254Z,100.00
2022-10-08T21:46:16.644Z,100.00
2022-10-08T21:48:43.746Z,100.00
2022-10-08T21:51:16.187Z,100.00
2022-10-08T21:53:49.719Z,100.00
2022-10-08T21:56:19.073Z,100.00
2022-10-08T21:58:48.689Z,100.00
2022-10-08T22:01:20.892Z,100.00
2022-10-08T22:03:47.630Z,100.00
2022-10-08T22:06:14.556Z,100.00
2022-10-08T22:08:41.227Z,100.00
2022-10-08T22:11:08.065Z,100.00
2022-10-08T22:13:34.787Z,100.00
2022-10-08T22:16:03.651Z,100.00
2022-10-08T22:18:32.593Z,100.00
2022-10-08T22:21:04.217Z,100.00
2022-10-08T22:23:31.073Z,100.00
2022-10-08T22:26:13.406Z,100.00
2022-10-08T22:28:41.087Z,100.00
2022-10-08T22:31:09.663Z,100.00
2022-10-08T22:33:37.072Z,100.00
2022-10-08T22:36:06.003Z,100.00
2022-10-08T22:38:34.647Z,100.00
2022-10-08T22:41:09.801Z,100.00
2022-10-08T22:43:40.730Z,100.00
2022-10-08T22:46:11.632Z,100.00
2022-10-08T22:48:39.044Z,100.00
2022-10-08T22:51:20.619Z,100.00
2022-10-08T22:53:48.402Z,100.00
2022-10-08T22:56:20.982Z,100.00
2022-10-08T22:58:49.549Z,100.00
2022-10-08T23:01:24.244Z,100.00
2022-10-08T23:03:51.662Z,100.00
2022-10-08T23:06:20.021Z,100.00
2022-10-08T23:08:49.038Z,100.00
2022-10-08T23:11:16.616Z,100.00
2022-10-08T23:13:46.127Z,100.00
2022-10-08T23:16:15.273Z,100.00
2022-10-08T23:18:44.601Z,100.00
2022-10-08T23:21:16.782Z,100.00
2022-10-08T23:23:45.370Z,100.00
2022-10-08T23:26:13.050Z,100.00
2022-10-08T23:28:40.895Z,100.00
2022-10-08T23:31:14.166Z,100.00
2022-10-08T23:33:44.380Z,100.00
2022-10-08T23:36:13.444Z,100.00
2022-10-08T23:38:40.329Z,100.00
2022-10-08T23:41:09.332Z,100.00
2022-10-08T23:43:38.352Z,100.00
2022-10-08T23:46:06.375Z,100.00
2022-10-08T23:48:33.787Z,100.00
2022-10-08T23:51:00.883Z,100.00
2022-10-08T23:53:28.084Z,100.00
2022-10-08T23:55:54.907Z,100.00
2022-10-08T23:58:21.594Z,100.00
